Time;durP1;ratioP1;P1;durP2;ratioP2;P2;SDS_P1;SDS_P2;PMS_P1;PMS_P2;Temp;Humidity;BMP_temperature;BMP_pressure;BME280_temperature;BME280_humidity;BME280_pressure;Samples;Min_cycle;Max_cycle;Signal;HPM_P1;HPM_P2
2021/05/13 00:00:23;;;;;;;13.05;6.55;;;12.00;1.00;;;;;;5082098;23;20090;-82
2021/05/13 00:02:49;;;;;;;6.90;4.30;;;11.90;1.00;;;;;;5001159;28;20027;-81
2021/05/13 00:05:16;;;;;;;9.00;5.22;;;11.80;1.00;;;;;;5001358;28;20094;-79
2021/05/13 00:07:42;;;;;;;8.48;4.78;;;11.80;1.00;;;;;;5001204;28;20022;-80
2021/05/13 00:10:15;;;;;;;9.52;4.63;;;11.70;1.00;;;;;;5001389;28;20015;-81
2021/05/13 00:15:13;;;;;;;6.50;4.65;;;11.70;1.00;;;;;;5000803;28;20046;-79
2021/05/13 00:17:39;;;;;;;6.72;4.18;;;11.70;1.00;;;;;;4999745;28;20114;-79
2021/05/13 00:20:09;;;;;;;9.77;5.93;;;11.60;1.00;;;;;;4998347;28;20010;-77
2021/05/13 00:22:35;;;;;;;8.27;4.80;;;11.60;1.00;;;;;;4993609;28;20007;-79
2021/05/13 00:25:00;;;;;;;6.05;5.45;;;11.60;1.00;;;;;;4999424;28;20078;-73
2021/05/13 00:27:26;;;;;;;12.40;5.95;;;11.60;1.00;;;;;;4993908;28;20035;-73
2021/05/13 00:29:52;;;;;;;8.77;5.45;;;11.70;1.00;;;;;;4993729;28;20034;-74
2021/05/13 00:32:17;;;;;;;7.47;5.63;;;11.80;1.00;;;;;;4983382;28;20119;-74
2021/05/13 00:34:43;;;;;;;7.90;6.18;;;11.80;1.00;;;;;;4995474;28;20058;-73
2021/05/13 00:37:08;;;;;;;10.95;5.28;;;11.80;1.00;;;;;;4994349;28;20049;-73
2021/05/13 00:39:34;;;;;;;8.02;5.97;;;11.70;1.00;;;;;;5011141;28;20023;-73
2021/05/13 00:41:59;;;;;;;6.22;5.32;;;11.60;1.00;;;;;;4995562;28;20035;-73
2021/05/13 00:44:25;;;;;;;5.60;4.97;;;11.60;1.00;;;;;;4992217;28;20090;-73
2021/05/13 00:46:51;;;;;;;7.75;5.22;;;11.60;1.00;;;;;;4995478;28;20026;-73
2021/05/13 00:49:18;;;;;;;6.13;4.53;;;11.60;1.00;;;;;;4993854;28;20037;-72
2021/05/13 00:51:45;;;;;;;7.53;4.97;;;11.70;1.00;;;;;;4992647;28;20023;-74
2021/05/13 00:54:11;;;;;;;7.38;4.63;;;11.60;1.00;;;;;;4994128;28;20034;-72
2021/05/13 00:56:37;;;;;;;7.05;4.85;;;11.60;1.00;;;;;;4991651;28;20026;-72
2021/05/13 00:59:07;;;;;;;11.32;5.05;;;11.50;1.00;;;;;;4991164;28;20149;-74
2021/05/13 01:01:51;;;;;;;8.70;5.57;;;11.40;1.00;;;;;;4987597;28;20050;-73
2021/05/13 01:04:19;;;;;;;6.28;4.55;;;11.40;1.00;;;;;;4988920;28;20463;-74
2021/05/13 01:06:46;;;;;;;6.20;4.90;;;11.50;1.00;;;;;;4989850;28;20022;-72
2021/05/13 01:09:12;;;;;;;6.18;4.50;;;11.70;1.00;;;;;;4988979;28;20023;-73
2021/05/13 01:11:43;;;;;;;4.85;4.40;;;11.80;1.00;;;;;;4986503;28;20022;-73
2021/05/13 01:14:22;;;;;;;9.80;5.30;;;11.80;1.00;;;;;;4979835;28;20059;-72
2021/05/13 01:17:15;;;;;;;8.73;5.75;;;11.90;1.00;;;;;;4976487;28;20529;-72
2021/05/13 01:20:02;;;;;;;6.90;5.55;;;12.00;1.00;;;;;;4984138;28;20381;-72
2021/05/13 01:22:28;;;;;;;12.93;5.90;;;11.80;1.00;;;;;;4991821;28;20023;-72
2021/05/13 01:24:54;;;;;;;9.15;6.07;;;11.70;1.00;;;;;;4992202;28;20022;-73
2021/05/13 01:27:20;;;;;;;8.70;6.00;;;11.60;1.00;;;;;;4980876;28;20082;-73
2021/05/13 01:29:48;;;;;;;8.65;5.50;;;11.50;1.00;;;;;;4973404;28;20030;-73
2021/05/13 01:32:15;;;;;;;9.38;5.53;;;11.40;1.00;;;;;;4971770;28;20053;-73
2021/05/13 01:34:44;;;;;;;7.45;4.88;;;11.30;1.00;;;;;;4972473;28;20372;-74
2021/05/13 01:37:10;;;;;;;6.15;5.40;;;11.30;1.00;;;;;;4974379;28;20066;-74
2021/05/13 01:39:35;;;;;;;6.22;4.78;;;11.30;1.00;;;;;;4975326;28;20063;-74
2021/05/13 01:42:01;;;;;;;9.73;5.38;;;11.30;1.00;;;;;;4975096;28;20019;-73
2021/05/13 01:44:26;;;;;;;12.57;5.18;;;11.30;1.00;;;;;;4973423;28;20050;-73
2021/05/13 01:46:52;;;;;;;8.60;5.20;;;11.40;1.00;;;;;;4969586;28;20034;-72
2021/05/13 01:49:20;;;;;;;8.93;4.72;;;11.40;1.00;;;;;;4975795;28;20019;-73
2021/05/13 01:51:47;;;;;;;7.63;5.18;;;11.30;1.00;;;;;;4975588;28;20085;-73
2021/05/13 01:54:13;;;;;;;6.45;5.80;;;11.30;1.00;;;;;;4977333;28;20047;-74
2021/05/13 01:56:39;;;;;;;6.10;5.50;;;11.40;1.00;;;;;;4974784;28;20115;-74
2021/05/13 01:59:05;;;;;;;7.85;5.40;;;11.30;1.00;;;;;;4974778;28;20507;-73
2021/05/13 02:01:30;;;;;;;6.43;5.13;;;11.30;1.00;;;;;;4972663;28;20023;-73
2021/05/13 02:03:56;;;;;;;8.18;5.40;;;11.30;1.00;;;;;;4972705;28;20518;-73
2021/05/13 02:06:22;;;;;;;9.15;5.50;;;11.30;1.00;;;;;;4970973;28;20042;-72
2021/05/13 02:08:47;;;;;;;9.50;6.22;;;11.30;1.00;;;;;;4980438;28;20026;-74
2021/05/13 02:11:13;;;;;;;10.00;5.95;;;11.40;1.00;;;;;;4972177;28;20526;-74
2021/05/13 02:13:38;;;;;;;7.78;5.18;;;11.40;1.00;;;;;;4968365;28;20541;-74
2021/05/13 02:16:04;;;;;;;7.80;5.60;;;11.50;1.00;;;;;;4969988;28;20066;-73
2021/05/13 02:18:30;;;;;;;9.63;6.63;;;11.50;1.00;;;;;;4971676;28;20034;-75
2021/05/13 02:20:55;;;;;;;7.03;4.90;;;11.40;1.00;;;;;;4975094;28;20057;-73
2021/05/13 02:23:21;;;;;;;8.35;5.55;;;11.30;1.00;;;;;;4975268;28;20089;-73
2021/05/13 02:25:47;;;;;;;9.65;5.75;;;11.20;1.00;;;;;;4975107;28;20030;-73
2021/05/13 02:28:14;;;;;;;8.85;5.93;;;11.10;1.00;;;;;;4984908;28;20307;-73
2021/05/13 02:30:39;;;;;;;10.13;5.85;;;11.10;1.00;;;;;;4972872;28;20132;-72
2021/05/13 02:33:05;;;;;;;10.40;6.15;;;11.10;1.00;;;;;;4974065;28;20136;-73
2021/05/13 02:35:31;;;;;;;7.82;5.82;;;11.00;1.00;;;;;;4978191;28;20061;-73
2021/05/13 02:37:58;;;;;;;7.82;5.20;;;11.00;1.00;;;;;;4976816;28;20038;-73
2021/05/13 02:40:24;;;;;;;9.38;6.25;;;11.00;1.00;;;;;;4978213;28;20019;-73
2021/05/13 02:42:49;;;;;;;13.55;6.25;;;11.00;1.00;;;;;;4977030;28;20090;-73
2021/05/13 02:45:15;;;;;;;8.10;5.78;;;11.00;1.00;;;;;;4977994;28;20065;-74
2021/05/13 02:47:41;;;;;;;6.53;5.15;;;11.10;1.00;;;;;;4977098;28;20027;-73
2021/05/13 02:50:09;;;;;;;5.72;5.05;;;11.30;1.00;;;;;;4976189;28;20109;-73
2021/05/13 02:52:35;;;;;;;7.65;5.40;;;11.50;1.00;;;;;;4974246;28;20521;-73
2021/05/13 02:55:01;;;;;;;6.38;5.07;;;11.50;1.00;;;;;;4973608;28;20034;-73
2021/05/13 02:57:27;;;;;;;6.90;5.03;;;11.60;1.00;;;;;;4973212;28;20402;-75
2021/05/13 03:00:00;;;;;;;9.82;4.63;;;11.60;1.00;;;;;;4971753;28;20121;-74
2021/05/13 03:02:26;;;;;;;7.75;5.00;;;11.60;1.00;;;;;;4971934;28;20031;-74
2021/05/13 03:04:51;;;;;;;7.25;4.90;;;11.40;1.00;;;;;;4974531;28;20026;-72
2021/05/13 03:07:17;;;;;;;8.20;5.07;;;11.20;1.00;;;;;;4974044;28;20045;-73
2021/05/13 03:09:48;;;;;;;8.95;5.55;;;11.10;1.00;;;;;;4978601;28;20030;-74
2021/05/13 03:12:13;;;;;;;8.50;5.73;;;11.00;1.00;;;;;;4976955;28;20034;-74
2021/05/13 03:14:39;;;;;;;6.90;5.32;;;11.00;1.00;;;;;;4975024;28;20081;-73
2021/05/13 03:17:04;;;;;;;8.15;5.78;;;10.90;1.00;;;;;;4975897;28;20030;-73
2021/05/13 03:19:38;;;;;;;10.35;5.28;;;11.20;1.00;;;;;;4977555;28;20045;-72
2021/05/13 03:22:07;;;;;;;5.82;4.70;;;11.20;1.00;;;;;;4973177;28;20050;-73
2021/05/13 03:24:43;;;;;;;7.32;4.65;;;11.10;1.00;;;;;;4974371;28;20046;-74
2021/05/13 03:29:41;;;;;;;5.78;5.00;;;11.10;1.00;;;;;;4976361;28;20065;-73
2021/05/13 03:32:06;;;;;;;10.85;4.72;;;11.20;1.00;;;;;;4977094;28;20054;-73
2021/05/13 03:34:32;;;;;;;7.18;5.45;;;11.30;1.00;;;;;;4975313;28;20054;-74
2021/05/13 03:36:57;;;;;;;8.05;6.05;;;11.40;1.00;;;;;;4975982;28;20561;-74
2021/05/13 03:39:23;;;;;;;6.82;5.10;;;11.50;1.00;;;;;;4975019;28;20027;-74
2021/05/13 03:41:49;;;;;;;7.88;6.03;;;11.50;1.00;;;;;;4992407;28;20028;-72
2021/05/13 03:44:14;;;;;;;7.22;6.03;;;11.40;1.00;;;;;;4975883;28;20031;-75
2021/05/13 03:46:40;;;;;;;10.43;5.45;;;11.20;1.00;;;;;;4974550;28;20414;-74
2021/05/13 03:49:05;;;;;;;7.07;4.75;;;11.20;1.00;;;;;;4993804;28;20011;-72
2021/05/13 03:51:31;;;;;;;8.90;5.55;;;11.20;1.00;;;;;;4986136;28;20023;-73
2021/05/13 03:53:57;;;;;;;9.48;5.80;;;11.10;1.00;;;;;;4976619;28;20486;-72
2021/05/13 03:56:22;;;;;;;7.43;5.30;;;10.90;1.00;;;;;;4977075;28;20479;-73
2021/05/13 03:59:01;;;;;;;7.70;5.40;;;10.90;1.00;;;;;;4974896;28;20574;-72
2021/05/13 04:04:11;;;;;;;8.43;5.32;;;10.90;1.00;;;;;;4974226;28;20069;-73
2021/05/13 04:06:37;;;;;;;7.28;5.60;;;10.80;1.00;;;;;;4976030;28;20027;-73
2021/05/13 04:09:08;;;;;;;10.27;5.55;;;10.80;1.00;;;;;;4976816;28;20093;-73
2021/05/13 04:11:34;;;;;;;7.70;5.30;;;10.70;1.00;;;;;;4969801;28;20035;-73
2021/05/13 04:14:00;;;;;;;8.93;5.88;;;10.70;1.00;;;;;;4976195;28;20034;-73
2021/05/13 04:16:27;;;;;;;6.47;5.32;;;10.60;1.00;;;;;;4973791;28;20399;-73
2021/05/13 04:18:53;;;;;;;10.57;6.60;;;10.60;1.00;;;;;;4976612;28;20038;-74
2021/05/13 04:21:19;;;;;;;7.00;5.53;;;10.60;1.00;;;;;;4975876;28;20023;-74
2021/05/13 04:23:45;;;;;;;10.60;5.70;;;10.60;1.00;;;;;;4990483;28;20113;-73
2021/05/13 04:26:10;;;;;;;8.70;6.88;;;10.70;1.00;;;;;;4976156;28;20027;-73
2021/05/13 04:28:36;;;;;;;10.73;6.38;;;10.70;1.00;;;;;;4989002;28;20050;-73
2021/05/13 04:31:01;;;;;;;9.77;7.07;;;10.70;1.00;;;;;;4990801;28;20399;-73
2021/05/13 04:33:27;;;;;;;12.98;6.45;;;10.70;1.00;;;;;;4989570;28;20031;-73
2021/05/13 04:35:52;;;;;;;9.77;6.68;;;10.70;1.00;;;;;;4986111;28;20034;-73
2021/05/13 04:38:18;;;;;;;7.22;5.47;;;10.70;1.00;;;;;;4984945;28;20105;-73
2021/05/13 04:40:45;;;;;;;6.72;6.00;;;10.90;1.00;;;;;;4977372;28;20023;-74
2021/05/13 04:43:11;;;;;;;10.20;6.28;;;11.10;1.00;;;;;;4976796;28;20113;-73
2021/05/13 04:45:37;;;;;;;9.77;6.50;;;11.40;1.00;;;;;;4977233;28;20023;-74
2021/05/13 04:48:07;;;;;;;10.35;6.38;;;11.60;1.00;;;;;;4972844;28;20110;-73
2021/05/13 04:50:33;;;;;;;12.07;7.40;;;11.60;1.00;;;;;;4977293;28;20035;-73
2021/05/13 04:53:00;;;;;;;6.50;5.90;;;11.80;1.00;;;;;;4990408;28;20073;-73
2021/05/13 04:55:27;;;;;;;7.80;5.30;;;12.10;1.00;;;;;;4976216;28;20155;-73
2021/05/13 04:57:54;;;;;;;8.45;5.13;;;12.80;1.00;;;;;;4974958;28;20030;-73
2021/05/13 05:00:20;;;;;;;7.30;4.43;;;13.40;1.00;;;;;;4971308;28;20575;-73
2021/05/13 05:02:46;;;;;;;5.80;4.53;;;13.80;99.90;;;;;;4971281;28;20106;-74
2021/05/13 05:05:12;;;;;;;5.47;4.97;;;14.60;99.90;;;;;;4990206;28;20023;-74
2021/05/13 05:07:37;;;;;;;5.85;4.00;;;15.20;99.90;;;;;;4989250;28;20035;-74
2021/05/13 05:10:04;;;;;;;7.80;5.07;;;15.10;99.90;;;;;;4976050;28;20558;-74
2021/05/13 05:12:29;;;;;;;5.43;3.08;;;14.80;99.90;;;;;;4975724;28;20030;-74
2021/05/13 05:14:57;;;;;;;4.85;3.58;;;14.60;99.90;;;;;;4976548;28;20086;-73
2021/05/13 05:17:22;;;;;;;3.63;3.33;;;15.00;99.90;;;;;;4975880;28;20491;-73
2021/05/13 05:19:48;;;;;;;3.83;3.28;;;15.20;99.90;;;;;;4976579;28;20042;-74
2021/05/13 05:22:14;;;;;;;5.35;4.80;;;14.90;99.90;;;;;;4975092;28;20118;-74
2021/05/13 05:24:39;;;;;;;5.68;3.30;;;14.70;99.90;;;;;;4973429;28;20074;-73
2021/05/13 05:27:05;;;;;;;5.57;3.60;;;14.90;99.90;;;;;;4975353;28;20139;-73
2021/05/13 05:29:31;;;;;;;4.50;3.25;;;14.80;99.90;;;;;;4991833;28;20046;-73
2021/05/13 05:31:57;;;;;;;4.03;2.92;;;14.90;99.90;;;;;;4978527;28;20508;-74
2021/05/13 05:34:22;;;;;;;7.07;4.10;;;14.40;99.90;;;;;;4975067;28;20027;-73
2021/05/13 05:36:48;;;;;;;4.85;3.08;;;14.10;99.90;;;;;;4973420;28;20029;-74
2021/05/13 05:39:13;;;;;;;3.42;3.13;;;14.00;99.90;;;;;;4972755;28;20037;-73
2021/05/13 05:41:39;;;;;;;3.45;2.95;;;14.00;99.90;;;;;;4973777;28;20113;-74
2021/05/13 05:44:05;;;;;;;6.13;3.83;;;14.30;99.90;;;;;;4974708;28;20435;-73
2021/05/13 05:46:31;;;;;;;3.83;3.00;;;14.80;99.90;;;;;;4972598;28;20026;-72
2021/05/13 05:48:56;;;;;;;3.50;2.50;;;15.30;99.90;;;;;;4975072;28;20031;-73
2021/05/13 05:51:22;;;;;;;5.22;3.05;;;15.80;99.90;;;;;;4972341;28;20487;-73
2021/05/13 05:53:48;;;;;;;6.10;2.50;;;16.50;99.90;;;;;;4978334;28;20031;-74
2021/05/13 05:56:13;;;;;;;3.15;2.83;;;17.40;1.00;;;;;;4975102;28;20041;-74
2021/05/13 05:58:39;;;;;;;4.15;2.40;;;17.50;1.00;;;;;;4974786;28;20053;-73
2021/05/13 06:01:04;;;;;;;4.03;2.10;;;17.10;1.00;;;;;;4970884;28;20155;-73
2021/05/13 06:03:30;;;;;;;4.97;2.13;;;17.00;1.00;;;;;;4970090;28;20394;-73
2021/05/13 06:05:55;;;;;;;4.40;2.25;;;16.90;1.00;;;;;;4974708;28;20027;-74
2021/05/13 06:08:21;;;;;;;4.75;2.50;;;16.80;99.90;;;;;;4975385;28;20038;-73
2021/05/13 06:10:47;;;;;;;4.00;2.17;;;16.90;1.00;;;;;;4971064;28;20070;-74
2021/05/13 06:13:12;;;;;;;3.90;2.05;;;17.00;1.00;;;;;;4970714;28;20023;-73
2021/05/13 06:15:38;;;;;;;4.15;2.63;;;16.40;1.00;;;;;;4972496;28;20038;-74
2021/05/13 06:18:05;;;;;;;4.43;2.30;;;16.00;6.90;;;;;;4974795;28;20035;-74
2021/05/13 06:20:32;;;;;;;5.15;2.50;;;15.60;97.60;;;;;;4972420;28;20026;-74
2021/05/13 06:22:58;;;;;;;5.55;2.30;;;15.50;99.90;;;;;;4968906;28;20023;-76
2021/05/13 06:25:26;;;;;;;4.22;2.50;;;15.40;99.90;;;;;;4972466;28;20080;-73
2021/05/13 06:27:52;;;;;;;9.13;6.43;;;15.20;99.90;;;;;;4967506;28;20035;-73
2021/05/13 06:30:18;;;;;;;3.22;2.35;;;15.10;99.90;;;;;;4969907;28;20035;-73
2021/05/13 06:32:45;;;;;;;4.93;2.70;;;15.00;99.90;;;;;;4971880;28;20162;-74
2021/05/13 06:35:12;;;;;;;3.50;2.03;;;15.00;99.90;;;;;;4974585;28;20030;-74
2021/05/13 06:37:38;;;;;;;5.85;2.83;;;15.00;99.90;;;;;;4974469;28;20034;-74
2021/05/13 06:40:07;;;;;;;3.72;2.30;;;15.00;99.90;;;;;;4973274;28;20558;-75
2021/05/13 06:42:33;;;;;;;5.88;2.42;;;15.00;99.90;;;;;;4971776;28;20494;-73
2021/05/13 06:44:59;;;;;;;5.18;2.95;;;15.10;99.90;;;;;;4972701;28;20070;-76
2021/05/13 06:47:24;;;;;;;4.30;2.50;;;15.40;99.90;;;;;;4973952;28;20047;-74
2021/05/13 06:49:50;;;;;;;6.25;3.35;;;15.90;99.90;;;;;;4973766;28;20062;-74
2021/05/13 06:52:16;;;;;;;16.05;3.95;;;15.60;99.90;;;;;;4973433;28;20035;-74
2021/05/13 06:54:43;;;;;;;5.18;3.20;;;15.60;99.90;;;;;;4973230;28;20402;-74
2021/05/13 06:57:08;;;;;;;7.82;3.17;;;15.80;99.90;;;;;;4970809;28;20110;-74
2021/05/13 06:59:34;;;;;;;5.55;3.80;;;16.00;99.90;;;;;;4970543;28;20074;-75
2021/05/13 07:02:00;;;;;;;5.22;3.72;;;15.70;99.90;;;;;;4972074;28;20027;-74
2021/05/13 07:04:27;;;;;;;4.72;3.58;;;15.70;99.90;;;;;;5005958;23;20525;-75
2021/05/13 07:06:53;;;;;;;6.30;3.47;;;15.70;99.90;;;;;;5017665;28;20014;-75
2021/05/13 07:09:19;;;;;;;3.25;2.47;;;15.70;81.60;;;;;;5006405;28;20030;-74
2021/05/13 07:11:45;;;;;;;4.93;2.20;;;15.70;86.30;;;;;;5011824;28;20339;-74
2021/05/13 07:14:11;;;;;;;3.00;2.38;;;15.60;22.90;;;;;;5007817;28;20033;-74
2021/05/13 07:16:37;;;;;;;5.55;2.78;;;15.70;41.90;;;;;;5015644;28;20058;-75
2021/05/13 07:19:04;;;;;;;2.95;2.63;;;16.30;1.00;;;;;;5014469;28;20046;-74
2021/05/13 07:21:30;;;;;;;4.20;2.65;;;16.50;1.00;;;;;;5015815;28;20014;-74
2021/05/13 07:23:55;;;;;;;4.22;2.30;;;16.10;1.00;;;;;;5012966;28;20070;-75
2021/05/13 07:26:21;;;;;;;6.40;1.95;;;15.90;1.00;;;;;;4997203;28;20035;-75
2021/05/13 07:28:48;;;;;;;2.80;2.03;;;16.00;99.90;;;;;;5004236;28;20022;-76
2021/05/13 07:31:14;;;;;;;2.65;2.03;;;16.10;1.00;;;;;;5008001;28;20130;-75
2021/05/13 07:33:40;;;;;;;3.88;2.25;;;15.90;1.00;;;;;;4997092;28;20062;-75
2021/05/13 07:36:07;;;;;;;2.10;1.50;;;16.30;1.00;;;;;;4997167;28;20041;-75
2021/05/13 07:38:34;;;;;;;5.40;2.05;;;16.80;99.90;;;;;;4996540;28;20041;-75
2021/05/13 07:40:59;;;;;;;6.45;2.47;;;16.90;92.00;;;;;;5012140;28;20022;-75
2021/05/13 07:43:26;;;;;;;6.13;2.90;;;16.60;99.90;;;;;;4992703;28;20053;-74
2021/05/13 07:45:52;;;;;;;3.78;1.88;;;16.60;99.90;;;;;;4995586;28;20018;-75
2021/05/13 07:48:18;;;;;;;1.98;1.50;;;16.90;99.90;;;;;;5000612;28;20027;-76
2021/05/13 07:50:43;;;;;;;3.63;2.10;;;17.10;28.20;;;;;;4992987;28;20030;-75
2021/05/13 07:53:09;;;;;;;3.13;1.80;;;16.80;6.90;;;;;;5001357;28;20077;-76
2021/05/13 07:55:36;;;;;;;2.30;1.50;;;16.90;1.00;;;;;;4998750;28;20054;-75
2021/05/13 07:58:02;;;;;;;13.73;2.25;;;16.70;1.00;;;;;;4999219;28;20066;-75
2021/05/13 08:00:28;;;;;;;2.50;1.73;;;16.70;6.40;;;;;;4998599;28;20045;-75
2021/05/13 08:02:53;;;;;;;2.28;1.70;;;16.10;99.90;;;;;;4997527;28;20027;-76
2021/05/13 08:05:19;;;;;;;3.70;1.52;;;16.10;99.90;;;;;;4997176;28;20060;-76
2021/05/13 08:07:44;;;;;;;2.78;1.80;;;16.40;99.90;;;;;;5001315;28;20023;-74
2021/05/13 08:10:11;;;;;;;3.03;1.63;;;17.00;35.80;;;;;;5007920;28;20045;-74
2021/05/13 08:12:36;;;;;;;1.95;1.50;;;17.40;1.00;;;;;;5006339;28;20030;-75
2021/05/13 08:15:05;;;;;;;2.60;1.65;;;17.20;1.00;;;;;;5007345;28;20426;-75
2021/05/13 08:17:30;;;;;;;2.80;2.03;;;17.30;99.90;;;;;;5005952;28;20026;-74
2021/05/13 08:19:56;;;;;;;3.50;2.10;;;17.20;99.90;;;;;;4999635;28;20042;-76
2021/05/13 08:22:22;;;;;;;3.78;1.90;;;17.60;1.00;;;;;;4997206;28;20145;-75
2021/05/13 08:24:47;;;;;;;3.97;2.08;;;17.40;15.70;;;;;;5004435;28;20030;-75
2021/05/13 08:27:13;;;;;;;4.80;1.50;;;17.00;40.60;;;;;;4999477;28;20539;-75
2021/05/13 08:29:39;;;;;;;2.25;1.70;;;17.20;61.40;;;;;;4998007;28;20022;-75
2021/05/13 08:32:06;;;;;;;2.88;1.70;;;16.70;1.00;;;;;;5000322;28;20046;-76
2021/05/13 08:34:32;;;;;;;3.90;1.70;;;16.30;1.00;;;;;;5000001;28;20106;-74
2021/05/13 08:36:59;;;;;;;3.47;1.50;;;16.30;1.00;;;;;;5012219;28;20081;-75
2021/05/13 08:39:25;;;;;;;3.03;1.80;;;16.40;1.00;;;;;;5001631;28;20026;-76
2021/05/13 08:41:50;;;;;;;2.65;1.65;;;16.40;56.70;;;;;;5002034;28;20438;-76
2021/05/13 08:44:18;;;;;;;3.85;1.52;;;16.30;1.00;;;;;;4990016;28;20494;-75
2021/05/13 08:46:43;;;;;;;3.20;1.50;;;16.30;38.70;;;;;;4999185;28;20034;-75
2021/05/13 08:49:09;;;;;;;3.60;1.55;;;16.70;1.00;;;;;;4993989;28;20042;-75
2021/05/13 08:51:37;;;;;;;3.13;1.35;;;17.00;99.90;;;;;;4998499;28;20037;-75
2021/05/13 08:54:04;;;;;;;2.05;1.27;;;16.90;99.90;;;;;;5002425;28;20058;-75
2021/05/13 08:56:30;;;;;;;2.75;1.50;;;17.00;98.40;;;;;;4996289;28;20026;-76
2021/05/13 08:59:03;;;;;;;3.67;1.13;;;16.80;54.30;;;;;;4994209;28;20045;-75
2021/05/13 09:01:30;;;;;;;3.08;1.50;;;17.20;1.00;;;;;;5017030;28;20022;-74
2021/05/13 09:03:58;;;;;;;2.40;1.83;;;17.60;99.90;;;;;;5032173;28;20045;-73
2021/05/13 09:06:28;;;;;;;2.13;1.35;;;17.90;99.90;;;;;;5004329;28;20125;-75
2021/05/13 09:08:56;;;;;;;2.85;1.38;;;18.00;80.70;;;;;;5013506;28;20058;-74
2021/05/13 09:11:22;;;;;;;2.38;1.17;;;17.70;18.10;;;;;;5019725;28;20034;-81
2021/05/13 09:14:02;;;;;;;5.63;1.38;;;17.80;99.90;;;;;;5019155;28;20023;-78
2021/05/13 09:16:35;;;;;;;2.03;1.38;;;18.10;99.90;;;;;;5013378;28;20023;-82
2021/05/13 09:19:28;;;;;;;1.10;1.00;;;18.50;99.90;;;;;;5012440;28;20410;-81
2021/05/13 09:22:01;;;;;;;2.97;1.33;;;19.00;99.90;;;;;;5010801;28;20121;-82
2021/05/13 09:24:52;;;;;;;3.80;2.20;;;19.80;99.90;;;;;;5005583;28;20034;-82
2021/05/13 09:27:22;;;;;;;2.60;1.15;;;20.00;99.90;;;;;;5005154;28;20061;-79
2021/05/13 09:30:19;;;;;;;3.05;1.58;;;19.40;99.90;;;;;;5006067;28;20018;-81
2021/05/13 09:32:53;;;;;;;1.77;1.25;;;19.00;99.90;;;;;;4998467;28;20033;-79
2021/05/13 09:35:21;;;;;;;3.10;1.30;;;19.20;99.90;;;;;;5002593;28;20030;-82
2021/05/13 09:37:50;;;;;;;1.67;1.27;;;18.80;99.90;;;;;;5002315;28;20030;-83
2021/05/13 09:40:52;;;;;;;2.42;1.50;;;18.70;99.90;;;;;;5004418;28;20037;-82
2021/05/13 09:43:21;;;;;;;2.58;1.30;;;18.40;99.90;;;;;;5004277;28;20030;-84
2021/05/13 09:45:52;;;;;;;4.00;1.60;;;18.50;99.90;;;;;;4999671;28;20347;-76
2021/05/13 09:48:36;;;;;;;2.67;1.40;;;18.50;99.90;;;;;;4992065;28;20114;-75
2021/05/13 09:51:14;;;;;;;3.30;1.58;;;18.60;99.90;;;;;;4990446;28;20030;-77
2021/05/13 09:53:40;;;;;;;4.40;1.40;;;18.70;99.90;;;;;;5010009;28;20050;-76
2021/05/13 09:56:28;;;;;;;4.78;1.10;;;18.10;99.90;;;;;;4998118;28;20181;-77
2021/05/13 09:58:55;;;;;;;2.53;1.30;;;18.70;99.90;;;;;;4994912;28;20038;-77
2021/05/13 10:01:21;;;;;;;4.53;1.05;;;19.00;99.90;;;;;;4990817;28;20015;-75
2021/05/13 10:03:47;;;;;;;2.53;1.23;;;19.00;48.40;;;;;;4993349;28;20023;-75
2021/05/13 10:06:13;;;;;;;1.50;1.02;;;18.70;92.40;;;;;;4998547;28;20019;-74
2021/05/13 10:08:42;;;;;;;4.20;1.63;;;18.80;99.90;;;;;;4995800;28;20032;-74
2021/05/13 10:11:08;;;;;;;5.22;1.35;;;18.90;40.70;;;;;;4993004;28;20037;-77
2021/05/13 10:13:34;;;;;;;4.25;1.20;;;18.80;47.30;;;;;;5002120;28;20494;-80
2021/05/13 10:16:01;;;;;;;1.38;0.80;;;18.80;76.10;;;;;;5000811;28;20037;-78
2021/05/13 10:18:40;;;;;;;1.00;0.82;;;18.70;19.30;;;;;;5003471;28;20030;-78
2021/05/13 10:21:27;;;;;;;1.65;0.88;;;18.70;6.80;;;;;;5002674;28;20050;-77
2021/05/13 10:23:55;;;;;;;3.92;1.00;;;18.90;1.00;;;;;;5003985;28;20401;-77
2021/05/13 10:26:32;;;;;;;2.50;1.15;;;18.80;1.00;;;;;;4989858;28;20023;-76
2021/05/13 10:28:58;;;;;;;3.35;1.00;;;18.40;1.00;;;;;;4993904;28;20041;-75
2021/05/13 10:32:02;;;;;;;3.67;0.90;;;18.60;1.00;;;;;;4995262;28;20038;-75
2021/05/13 10:34:57;;;;;;;3.67;1.25;;;18.70;1.00;;;;;;4982046;28;20043;-74
2021/05/13 10:37:33;;;;;;;2.67;1.13;;;18.40;1.00;;;;;;4995884;28;20050;-74
2021/05/13 10:42:45;;;;;;;3.13;1.17;;;18.20;1.00;;;;;;4999616;28;20038;-74
2021/05/13 10:45:31;;;;;;;3.05;1.15;;;18.10;1.00;;;;;;4995900;28;20074;-74
2021/05/13 10:48:20;;;;;;;2.38;0.98;;;18.00;1.00;;;;;;4997827;28;20042;-76
2021/05/13 10:51:04;;;;;;;3.67;1.27;;;18.10;1.00;;;;;;4987789;28;20545;-76
2021/05/13 10:53:47;;;;;;;3.40;1.30;;;17.70;74.60;;;;;;4990126;28;20053;-77
2021/05/13 10:56:17;;;;;;;3.58;1.20;;;17.90;93.80;;;;;;4989253;28;20026;-76
2021/05/13 10:59:10;;;;;;;2.23;1.00;;;17.90;80.50;;;;;;4985034;28;20019;-77
2021/05/13 11:01:46;;;;;;;2.35;1.45;;;17.70;46.40;;;;;;5001601;28;20085;-74
2021/05/13 11:04:23;;;;;;;2.13;1.42;;;17.70;99.90;;;;;;4985205;28;20026;-74
2021/05/13 11:06:53;;;;;;;2.55;1.10;;;17.90;99.90;;;;;;4994383;28;20022;-76
2021/05/13 11:09:37;;;;;;;2.25;1.38;;;18.10;99.90;;;;;;4992861;28;20486;-76
2021/05/13 11:12:14;;;;;;;2.03;1.00;;;17.90;99.90;;;;;;4988109;28;20058;-75
2021/05/13 11:15:41;;;;;;;2.30;1.00;;;18.20;99.90;;;;;;4992685;28;20535;-76
2021/05/13 11:18:00;;;;;;;2.47;0.98;;;19.10;90.90;;;;;;4974384;28;20466;-75
2021/05/13 11:20:30;;;;;;;3.00;1.08;;;18.90;99.90;;;;;;4987019;28;20092;-75
2021/05/13 11:22:59;;;;;;;5.15;1.75;;;18.80;99.90;;;;;;4992830;28;20053;-76
2021/05/13 11:25:37;;;;;;;3.53;1.40;;;18.70;99.90;;;;;;4993786;28;20019;-76
2021/05/13 11:28:29;;;;;;;3.33;1.20;;;18.70;99.90;;;;;;4995183;28;20045;-75
2021/05/13 11:31:07;;;;;;;3.35;1.55;;;18.30;1.00;;;;;;4993285;28;20445;-74
2021/05/13 11:33:40;;;;;;;1.90;0.90;;;18.50;99.90;;;;;;4995302;28;20030;-74
2021/05/13 11:36:08;;;;;;;2.92;1.48;;;17.90;99.90;;;;;;4998869;28;20057;-76
2021/05/13 11:38:33;;;;;;;5.15;2.00;;;17.60;1.00;;;;;;5010743;28;20066;-74
2021/05/13 11:41:00;;;;;;;2.10;1.17;;;17.70;99.90;;;;;;4995309;28;20055;-76
2021/05/13 11:43:28;;;;;;;2.25;0.90;;;17.30;99.90;;;;;;4988980;28;20022;-77
2021/05/13 11:45:57;;;;;;;2.72;1.42;;;17.40;99.90;;;;;;4999474;28;20076;-76
2021/05/13 11:48:32;;;;;;;1.48;0.73;;;17.30;99.20;;;;;;4990433;28;20405;-74
2021/05/13 11:51:04;;;;;;;2.50;0.85;;;17.40;99.90;;;;;;4997611;28;20502;-76
2021/05/13 11:53:31;;;;;;;1.45;0.80;;;17.70;99.90;;;;;;4997368;28;20041;-76
2021/05/13 11:55:57;;;;;;;1.83;0.73;;;17.90;99.90;;;;;;4995243;28;20137;-76
2021/05/13 11:58:45;;;;;;;2.17;0.60;;;17.80;99.90;;;;;;5004091;28;20026;-75
2021/05/13 12:01:26;;;;;;;1.88;0.70;;;17.90;99.90;;;;;;4996460;28;20023;-74
2021/05/13 12:03:59;;;;;;;1.08;0.80;;;17.70;99.90;;;;;;4988175;28;20395;-76
2021/05/13 12:06:26;;;;;;;1.80;0.57;;;17.50;99.90;;;;;;5002005;28;20113;-75
2021/05/13 12:08:53;;;;;;;1.17;0.60;;;17.50;99.90;;;;;;5018438;28;20026;-76
2021/05/13 12:11:24;;;;;;;1.20;0.60;;;17.50;47.90;;;;;;4997361;28;20077;-74
2021/05/13 12:13:50;;;;;;;;;;;17.50;99.90;;;;;;5006927;28;20026;-74
2021/05/13 12:16:17;;;;;;;1.75;0.70;;;17.60;99.90;;;;;;4998932;28;19914;-76
2021/05/13 12:19:15;;;;;;;2.83;0.80;;;17.90;99.90;;;;;;5001681;28;20056;-76
2021/05/13 12:21:56;;;;;;;1.85;0.50;;;17.90;99.90;;;;;;4996246;28;20026;-78
2021/05/13 12:24:52;;;;;;;0.57;0.57;;;17.80;99.90;;;;;;4995536;28;20030;-77
2021/05/13 12:27:19;;;;;;;0.80;0.50;;;17.70;5.80;;;;;;5000681;28;20038;-77
2021/05/13 12:29:49;;;;;;;1.42;0.60;;;17.90;1.00;;;;;;5000913;28;20030;-76
2021/05/13 12:32:35;;;;;;;1.58;0.60;;;17.90;1.00;;;;;;5015919;28;20026;-76
2021/05/13 12:35:19;;;;;;;2.28;0.70;;;17.70;99.90;;;;;;5005282;28;20115;-76
2021/05/13 12:37:45;;;;;;;0.93;0.77;;;17.90;1.00;;;;;;5014443;28;20042;-73
2021/05/13 12:40:13;;;;;;;0.88;0.45;;;18.10;1.00;;;;;;5004477;28;20022;-75
2021/05/13 12:42:38;;;;;;;2.05;1.08;;;18.20;1.00;;;;;;5005008;28;20027;-74
2021/05/13 12:45:21;;;;;;;0.45;0.43;;;18.30;1.00;;;;;;5003029;28;20033;-75
2021/05/13 12:48:02;;;;;;;2.17;1.35;;;18.30;99.90;;;;;;5004775;28;20377;-74
2021/05/13 12:50:28;;;;;;;1.53;0.70;;;18.50;99.90;;;;;;5004734;28;20022;-74
2021/05/13 12:53:14;;;;;;;1.23;0.50;;;18.80;99.90;;;;;;4996480;28;20030;-74
2021/05/13 12:55:42;;;;;;;1.50;0.70;;;18.90;99.90;;;;;;4999804;28;20061;-75
2021/05/13 12:58:13;;;;;;;2.00;0.60;;;18.90;99.90;;;;;;5004745;28;20030;-74
2021/05/13 13:00:39;;;;;;;0.82;0.50;;;19.50;99.90;;;;;;5013052;28;20049;-75
2021/05/13 13:03:07;;;;;;;3.13;1.00;;;18.80;99.90;;;;;;5005897;28;20073;-74
2021/05/13 13:05:34;;;;;;;1.80;0.50;;;18.90;99.90;;;;;;5012208;23;20049;-75
2021/05/13 13:08:00;;;;;;;1.92;0.70;;;18.50;99.90;;;;;;5011385;28;20026;-76
2021/05/13 13:10:27;;;;;;;1.35;0.60;;;18.30;1.00;;;;;;5018122;28;20044;-77
2021/05/13 13:13:14;;;;;;;1.45;0.90;;;18.30;1.00;;;;;;5016060;28;20022;-78